Airport View

Enter AWOS ICAO identifier for current METAR.

ex. KFNL

KDYB 171155Z AUTO 01011G17KT 10SM OVC022 07/03 A2996 RMK AO2

17 Nov 2019 12:03

Frequency: 119.575

Phone: 843-821-8403

Other Area AWOS: KMKS - KCHS - KRBW - KJZI

TAF KCHS 171136Z 1712/1812 36015G25KT P6SM BKN022 FM171900 34010KT P6SM BKN025 FM172300 35007KT P6SM SCT025 FM180900 35005KT P6SM SCT025 BKN080